<?xml version="1.0" encoding="UTF-8" standalone="no" ?>
<gpx xmlns="http://www.topografix.com/GPX/1/1" xmlns:xsi="http://www.w3.org/2001/XMLSchema-instance" xsi:schemaLocation="http://www.topografix.com/GPX/1/1 http://www.topografix.com/GPX/1/1/gpx.xsd" version="1.1" creator="VisuGPX - https://www.visugpx.com">
  <metadata>
    <name>Course à pied le matin</name>
  </metadata>
  <trk>
    <name><![CDATA[Course à pied le matin_1]]></name>
    <trkseg>
      <trkpt lat="43.64545" lon="1.37991">
        <ele>150</ele>
        <time>2023-07-08T05:43:37Z</time>
      </trkpt>
      <trkpt lat="43.64545" lon="1.37991">
        <ele>150</ele>
        <time>2023-07-08T05:43:38Z</time>
      </trkpt>
      <trkpt lat="43.64545" lon="1.37991">
        <ele>149</ele>
        <time>2023-07-08T05:43:39Z</time>
      </trkpt>
      <trkpt lat="43.64545" lon="1.37991">
        <ele>148</ele>
        <time>2023-07-08T05:43:40Z</time>
      </trkpt>
      <trkpt lat="43.64547" lon="1.37992">
        <ele>149</ele>
        <time>2023-07-08T05:43:41Z</time>
      </trkpt>
      <trkpt lat="43.64547" lon="1.37992">
        <ele>149</ele>
        <time>2023-07-08T05:43:42Z</time>
      </trkpt>
      <trkpt lat="43.64547" lon="1.37992">
        <ele>149</ele>
        <time>2023-07-08T05:43:43Z</time>
      </trkpt>
      <trkpt lat="43.64547" lon="1.37992">
        <ele>149</ele>
        <time>2023-07-08T05:43:44Z</time>
      </trkpt>
      <trkpt lat="43.64547" lon="1.37992">
        <ele>149</ele>
        <time>2023-07-08T05:43:45Z</time>
      </trkpt>
      <trkpt lat="43.64547" lon="1.37992">
        <ele>149</ele>
        <time>2023-07-08T05:43:46Z</time>
      </trkpt>
      <trkpt lat="43.64547" lon="1.37992">
        <ele>149</ele>
        <time>2023-07-08T05:43:47Z</time>
      </trkpt>
      <trkpt lat="43.64547" lon="1.37992">
        <ele>149</ele>
        <time>2023-07-08T05:43:48Z</time>
      </trkpt>
      <trkpt lat="43.64547" lon="1.37992">
        <ele>149</ele>
        <time>2023-07-08T05:43:49Z</time>
      </trkpt>
      <trkpt lat="43.64547" lon="1.37992">
        <ele>148</ele>
        <time>2023-07-08T05:43:50Z</time>
      </trkpt>
      <trkpt lat="43.64547" lon="1.37992">
        <ele>148</ele>
        <time>2023-07-08T05:43:51Z</time>
      </trkpt>
      <trkpt lat="43.64547" lon="1.37992">
        <ele>148</ele>
        <time>2023-07-08T05:43:52Z</time>
      </trkpt>
      <trkpt lat="43.64547" lon="1.37992">
        <ele>149</ele>
        <time>2023-07-08T05:43:53Z</time>
      </trkpt>
      <trkpt lat="43.64549" lon="1.37993">
        <ele>149</ele>
        <time>2023-07-08T05:43:54Z</time>
      </trkpt>
      <trkpt lat="43.64551" lon="1.37995">
        <ele>149</ele>
        <time>2023-07-08T05:43:55Z</time>
      </trkpt>
      <trkpt lat="43.64553" lon="1.37996">
        <ele>149</ele>
        <time>2023-07-08T05:43:56Z</time>
      </trkpt>
      <trkpt lat="43.64553" lon="1.37996">
        <ele>149</ele>
        <time>2023-07-08T05:43:57Z</time>
      </trkpt>
      <trkpt lat="43.64553" lon="1.37996">
        <ele>149</ele>
        <time>2023-07-08T05:43:58Z</time>
      </trkpt>
      <trkpt lat="43.64553" lon="1.37996">
        <ele>149</ele>
        <time>2023-07-08T05:43:59Z</time>
      </trkpt>
      <trkpt lat="43.64553" lon="1.37996">
        <ele>149</ele>
        <time>2023-07-08T05:44:00Z</time>
      </trkpt>
      <trkpt lat="43.64551" lon="1.37997">
        <ele>149</ele>
        <time>2023-07-08T05:44:01Z</time>
      </trkpt>
      <trkpt lat="43.64551" lon="1.37997">
        <ele>149</ele>
        <time>2023-07-08T05:44:02Z</time>
      </trkpt>
      <trkpt lat="43.64548" lon="1.37996">
        <ele>149</ele>
        <time>2023-07-08T05:44:03Z</time>
      </trkpt>
      <trkpt lat="43.64548" lon="1.37996">
        <ele>149</ele>
        <time>2023-07-08T05:44:04Z</time>
      </trkpt>
      <trkpt lat="43.64546" lon="1.37995">
        <ele>149</ele>
        <time>2023-07-08T05:44:05Z</time>
      </trkpt>
      <trkpt lat="43.64546" lon="1.37995">
        <ele>149</ele>
        <time>2023-07-08T05:44:06Z</time>
      </trkpt>
      <trkpt lat="43.64546" lon="1.37995">
        <ele>148</ele>
        <time>2023-07-08T05:44:07Z</time>
      </trkpt>
      <trkpt lat="43.64544" lon="1.37993">
        <ele>148</ele>
        <time>2023-07-08T05:44:08Z</time>
      </trkpt>
      <trkpt lat="43.64544" lon="1.37993">
        <ele>149</ele>
        <time>2023-07-08T05:44:09Z</time>
      </trkpt>
      <trkpt lat="43.64544" lon="1.37993">
        <ele>149</ele>
        <time>2023-07-08T05:44:10Z</time>
      </trkpt>
      <trkpt lat="43.64547" lon="1.37994">
        <ele>148</ele>
        <time>2023-07-08T05:44:11Z</time>
      </trkpt>
      <trkpt lat="43.64549" lon="1.37995">
        <ele>149</ele>
        <time>2023-07-08T05:44:12Z</time>
      </trkpt>
      <trkpt lat="43.64552" lon="1.37997">
        <ele>149</ele>
        <time>2023-07-08T05:44:13Z</time>
      </trkpt>
      <trkpt lat="43.64552" lon="1.37997">
        <ele>149</ele>
        <time>2023-07-08T05:44:14Z</time>
      </trkpt>
      <trkpt lat="43.64552" lon="1.37997">
        <ele>149</ele>
        <time>2023-07-08T05:44:15Z</time>
      </trkpt>
      <trkpt lat="43.64552" lon="1.37997">
        <ele>149</ele>
        <time>2023-07-08T05:44:16Z</time>
      </trkpt>
      <trkpt lat="43.64552" lon="1.37997">
        <ele>149</ele>
        <time>2023-07-08T05:44:17Z</time>
      </trkpt>
      <trkpt lat="43.64549" lon="1.37998">
        <ele>149</ele>
        <time>2023-07-08T05:44:18Z</time>
      </trkpt>
      <trkpt lat="43.64549" lon="1.37998">
        <ele>149</ele>
        <time>2023-07-08T05:44:19Z</time>
      </trkpt>
      <trkpt lat="43.64547" lon="1.37997">
        <ele>149</ele>
        <time>2023-07-08T05:44:20Z</time>
      </trkpt>
      <trkpt lat="43.64547" lon="1.37997">
        <ele>150</ele>
        <time>2023-07-08T05:44:21Z</time>
      </trkpt>
      <trkpt lat="43.64547" lon="1.37997">
        <ele>150</ele>
        <time>2023-07-08T05:44:22Z</time>
      </trkpt>
      <trkpt lat="43.64545" lon="1.37995">
        <ele>150</ele>
        <time>2023-07-08T05:44:23Z</time>
      </trkpt>
      <trkpt lat="43.64545" lon="1.37995">
        <ele>149</ele>
        <time>2023-07-08T05:44:24Z</time>
      </trkpt>
      <trkpt lat="43.64545" lon="1.37995">
        <ele>148</ele>
        <time>2023-07-08T05:44:25Z</time>
      </trkpt>
      <trkpt lat="43.64545" lon="1.37995">
        <ele>148</ele>
        <time>2023-07-08T05:44:26Z</time>
      </trkpt>
      <trkpt lat="43.64545" lon="1.37995">
        <ele>148</ele>
        <time>2023-07-08T05:44:27Z</time>
      </trkpt>
      <trkpt lat="43.64545" lon="1.37995">
        <ele>148</ele>
        <time>2023-07-08T05:44:28Z</time>
      </trkpt>
      <trkpt lat="43.64545" lon="1.37995">
        <ele>149</ele>
        <time>2023-07-08T05:44:29Z</time>
      </trkpt>
      <trkpt lat="43.64547" lon="1.37994">
        <ele>149</ele>
        <time>2023-07-08T05:44:30Z</time>
      </trkpt>
      <trkpt lat="43.6455" lon="1.37996">
        <ele>149</ele>
        <time>2023-07-08T05:44:31Z</time>
      </trkpt>
      <trkpt lat="43.64554" lon="1.37998">
        <ele>149</ele>
        <time>2023-07-08T05:44:32Z</time>
      </trkpt>
      <trkpt lat="43.64554" lon="1.37998">
        <ele>149</ele>
        <time>2023-07-08T05:44:33Z</time>
      </trkpt>
      <trkpt lat="43.64554" lon="1.37998">
        <ele>149</ele>
        <time>2023-07-08T05:44:34Z</time>
      </trkpt>
      <trkpt lat="43.64554" lon="1.37998">
        <ele>149</ele>
        <time>2023-07-08T05:44:35Z</time>
      </trkpt>
      <trkpt lat="43.64552" lon="1.37999">
        <ele>149</ele>
        <time>2023-07-08T05:44:36Z</time>
      </trkpt>
      <trkpt lat="43.64552" lon="1.37999">
        <ele>149</ele>
        <time>2023-07-08T05:44:37Z</time>
      </trkpt>
      <trkpt lat="43.64549" lon="1.37997">
        <ele>149</ele>
        <time>2023-07-08T05:44:38Z</time>
      </trkpt>
      <trkpt lat="43.64549" lon="1.37997">
        <ele>149</ele>
        <time>2023-07-08T05:44:39Z</time>
      </trkpt>
      <trkpt lat="43.64546" lon="1.37996">
        <ele>149</ele>
        <time>2023-07-08T05:44:40Z</time>
      </trkpt>
      <trkpt lat="43.64546" lon="1.37996">
        <ele>149</ele>
        <time>2023-07-08T05:44:41Z</time>
      </trkpt>
      <trkpt lat="43.64546" lon="1.37996">
        <ele>149</ele>
        <time>2023-07-08T05:44:42Z</time>
      </trkpt>
      <trkpt lat="43.64545" lon="1.37994">
        <ele>149</ele>
        <time>2023-07-08T05:44:43Z</time>
      </trkpt>
      <trkpt lat="43.64545" lon="1.37994">
        <ele>149</ele>
        <time>2023-07-08T05:44:44Z</time>
      </trkpt>
      <trkpt lat="43.64545" lon="1.37994">
        <ele>148</ele>
        <time>2023-07-08T05:44:45Z</time>
      </trkpt>
      <trkpt lat="43.64545" lon="1.37994">
        <ele>148</ele>
        <time>2023-07-08T05:44:46Z</time>
      </trkpt>
      <trkpt lat="43.64545" lon="1.37994">
        <ele>148</ele>
        <time>2023-07-08T05:44:47Z</time>
      </trkpt>
      <trkpt lat="43.64547" lon="1.37994">
        <ele>148</ele>
        <time>2023-07-08T05:44:48Z</time>
      </trkpt>
      <trkpt lat="43.64549" lon="1.37994">
        <ele>148</ele>
        <time>2023-07-08T05:44:49Z</time>
      </trkpt>
      <trkpt lat="43.64551" lon="1.37996">
        <ele>148</ele>
        <time>2023-07-08T05:44:50Z</time>
      </trkpt>
      <trkpt lat="43.64554" lon="1.37996">
        <ele>148</ele>
        <time>2023-07-08T05:44:51Z</time>
      </trkpt>
      <trkpt lat="43.64554" lon="1.37996">
        <ele>148</ele>
        <time>2023-07-08T05:44:52Z</time>
      </trkpt>
      <trkpt lat="43.64554" lon="1.37996">
        <ele>148</ele>
        <time>2023-07-08T05:44:53Z</time>
      </trkpt>
      <trkpt lat="43.64554" lon="1.37996">
        <ele>149</ele>
        <time>2023-07-08T05:44:54Z</time>
      </trkpt>
      <trkpt lat="43.64551" lon="1.37997">
        <ele>149</ele>
        <time>2023-07-08T05:44:55Z</time>
      </trkpt>
      <trkpt lat="43.64551" lon="1.37997">
        <ele>149</ele>
        <time>2023-07-08T05:44:56Z</time>
      </trkpt>
      <trkpt lat="43.64549" lon="1.37997">
        <ele>149</ele>
        <time>2023-07-08T05:44:57Z</time>
      </trkpt>
      <trkpt lat="43.64549" lon="1.37997">
        <ele>149</ele>
        <time>2023-07-08T05:44:58Z</time>
      </trkpt>
      <trkpt lat="43.64546" lon="1.37996">
        <ele>149</ele>
        <time>2023-07-08T05:44:59Z</time>
      </trkpt>
      <trkpt lat="43.64544" lon="1.37995">
        <ele>149</ele>
        <time>2023-07-08T05:45:00Z</time>
      </trkpt>
      <trkpt lat="43.64544" lon="1.37995">
        <ele>149</ele>
        <time>2023-07-08T05:45:01Z</time>
      </trkpt>
      <trkpt lat="43.64544" lon="1.37995">
        <ele>149</ele>
        <time>2023-07-08T05:45:02Z</time>
      </trkpt>
      <trkpt lat="43.64544" lon="1.37995">
        <ele>149</ele>
        <time>2023-07-08T05:45:03Z</time>
      </trkpt>
      <trkpt lat="43.64544" lon="1.37995">
        <ele>149</ele>
        <time>2023-07-08T05:45:04Z</time>
      </trkpt>
      <trkpt lat="43.64544" lon="1.37995">
        <ele>149</ele>
        <time>2023-07-08T05:45:05Z</time>
      </trkpt>
      <trkpt lat="43.64544" lon="1.37995">
        <ele>148</ele>
        <time>2023-07-08T05:45:06Z</time>
      </trkpt>
      <trkpt lat="43.64546" lon="1.37993">
        <ele>148</ele>
        <time>2023-07-08T05:45:07Z</time>
      </trkpt>
      <trkpt lat="43.64546" lon="1.37993">
        <ele>148</ele>
        <time>2023-07-08T05:45:08Z</time>
      </trkpt>
      <trkpt lat="43.64548" lon="1.37994">
        <ele>148</ele>
        <time>2023-07-08T05:45:09Z</time>
      </trkpt>
      <trkpt lat="43.64551" lon="1.37997">
        <ele>148</ele>
        <time>2023-07-08T05:45:10Z</time>
      </trkpt>
      <trkpt lat="43.64553" lon="1.37998">
        <ele>148</ele>
        <time>2023-07-08T05:45:11Z</time>
      </trkpt>
      <trkpt lat="43.64553" lon="1.37998">
        <ele>148</ele>
        <time>2023-07-08T05:45:12Z</time>
      </trkpt>
      <trkpt lat="43.64553" lon="1.37998">
        <ele>149</ele>
        <time>2023-07-08T05:45:13Z</time>
      </trkpt>
      <trkpt lat="43.64553" lon="1.37998">
        <ele>149</ele>
        <time>2023-07-08T05:45:14Z</time>
      </trkpt>
      <trkpt lat="43.64553" lon="1.37998">
        <ele>149</ele>
        <time>2023-07-08T05:45:15Z</time>
      </trkpt>
      <trkpt lat="43.6455" lon="1.37999">
        <ele>149</ele>
        <time>2023-07-08T05:45:16Z</time>
      </trkpt>
      <trkpt lat="43.6455" lon="1.37999">
        <ele>149</ele>
        <time>2023-07-08T05:45:17Z</time>
      </trkpt>
      <trkpt lat="43.64547" lon="1.37998">
        <ele>149</ele>
        <time>2023-07-08T05:45:18Z</time>
      </trkpt>
      <trkpt lat="43.64547" lon="1.37998">
        <ele>149</ele>
        <time>2023-07-08T05:45:19Z</time>
      </trkpt>
      <trkpt lat="43.64546" lon="1.37997">
        <ele>149</ele>
        <time>2023-07-08T05:45:20Z</time>
      </trkpt>
      <trkpt lat="43.64546" lon="1.37997">
        <ele>149</ele>
        <time>2023-07-08T05:45:21Z</time>
      </trkpt>
      <trkpt lat="43.64547" lon="1.37997">
        <ele>149</ele>
        <time>2023-07-08T05:45:22Z</time>
      </trkpt>
      <trkpt lat="43.64548" lon="1.37998">
        <ele>149</ele>
        <time>2023-07-08T05:45:23Z</time>
      </trkpt>
      <trkpt lat="43.64549" lon="1.37998">
        <ele>149</ele>
        <time>2023-07-08T05:45:24Z</time>
      </trkpt>
      <trkpt lat="43.6455" lon="1.37998">
        <ele>149</ele>
        <time>2023-07-08T05:45:25Z</time>
      </trkpt>
      <trkpt lat="43.64551" lon="1.37999">
        <ele>148</ele>
        <time>2023-07-08T05:45:26Z</time>
      </trkpt>
      <trkpt lat="43.64552" lon="1.37999">
        <ele>148</ele>
        <time>2023-07-08T05:45:27Z</time>
      </trkpt>
      <trkpt lat="43.64553" lon="1.37999">
        <ele>148</ele>
        <time>2023-07-08T05:45:28Z</time>
      </trkpt>
      <trkpt lat="43.64553" lon="1.38">
        <ele>148</ele>
        <time>2023-07-08T05:45:29Z</time>
      </trkpt>
      <trkpt lat="43.64554" lon="1.38">
        <ele>148</ele>
        <time>2023-07-08T05:45:30Z</time>
      </trkpt>
      <trkpt lat="43.64554" lon="1.38">
        <ele>148</ele>
        <time>2023-07-08T05:45:31Z</time>
      </trkpt>
      <trkpt lat="43.64556" lon="1.38002">
        <ele>149</ele>
        <time>2023-07-08T05:45:32Z</time>
      </trkpt>
      <trkpt lat="43.64556" lon="1.38002">
        <ele>149</ele>
        <time>2023-07-08T05:45:33Z</time>
      </trkpt>
      <trkpt lat="43.64556" lon="1.38002">
        <ele>150</ele>
        <time>2023-07-08T05:45:34Z</time>
      </trkpt>
      <trkpt lat="43.64556" lon="1.38002">
        <ele>150</ele>
        <time>2023-07-08T05:45:35Z</time>
      </trkpt>
      <trkpt lat="43.64553" lon="1.38001">
        <ele>150</ele>
        <time>2023-07-08T05:45:36Z</time>
      </trkpt>
      <trkpt lat="43.64553" lon="1.38001">
        <ele>150</ele>
        <time>2023-07-08T05:45:37Z</time>
      </trkpt>
      <trkpt lat="43.6455" lon="1.37999">
        <ele>150</ele>
        <time>2023-07-08T05:45:38Z</time>
      </trkpt>
      <trkpt lat="43.6455" lon="1.37999">
        <ele>149</ele>
        <time>2023-07-08T05:45:39Z</time>
      </trkpt>
      <trkpt lat="43.64548" lon="1.37998">
        <ele>149</ele>
        <time>2023-07-08T05:45:40Z</time>
      </trkpt>
      <trkpt lat="43.64548" lon="1.37998">
        <ele>149</ele>
        <time>2023-07-08T05:45:41Z</time>
      </trkpt>
      <trkpt lat="43.64545" lon="1.37996">
        <ele>149</ele>
        <time>2023-07-08T05:45:42Z</time>
      </trkpt>
      <trkpt lat="43.64545" lon="1.37996">
        <ele>149</ele>
        <time>2023-07-08T05:45:43Z</time>
      </trkpt>
      <trkpt lat="43.64544" lon="1.37994">
        <ele>149</ele>
        <time>2023-07-08T05:45:44Z</time>
      </trkpt>
      <trkpt lat="43.64544" lon="1.37994">
        <ele>149</ele>
        <time>2023-07-08T05:45:45Z</time>
      </trkpt>
      <trkpt lat="43.64544" lon="1.37994">
        <ele>149</ele>
        <time>2023-07-08T05:45:46Z</time>
      </trkpt>
      <trkpt lat="43.64544" lon="1.37994">
        <ele>149</ele>
        <time>2023-07-08T05:45:47Z</time>
      </trkpt>
      <trkpt lat="43.64547" lon="1.37994">
        <ele>149</ele>
        <time>2023-07-08T05:45:48Z</time>
      </trkpt>
      <trkpt lat="43.64552" lon="1.37997">
        <ele>149</ele>
        <time>2023-07-08T05:45:49Z</time>
      </trkpt>
      <trkpt lat="43.64552" lon="1.37997">
        <ele>149</ele>
        <time>2023-07-08T05:45:50Z</time>
      </trkpt>
      <trkpt lat="43.64555" lon="1.38">
        <ele>149</ele>
        <time>2023-07-08T05:45:51Z</time>
      </trkpt>
      <trkpt lat="43.64555" lon="1.38">
        <ele>150</ele>
        <time>2023-07-08T05:45:52Z</time>
      </trkpt>
      <trkpt lat="43.64555" lon="1.38">
        <ele>150</ele>
        <time>2023-07-08T05:45:53Z</time>
      </trkpt>
      <trkpt lat="43.64555" lon="1.38">
        <ele>150</ele>
        <time>2023-07-08T05:45:54Z</time>
      </trkpt>
      <trkpt lat="43.64553" lon="1.38">
        <ele>150</ele>
        <time>2023-07-08T05:45:55Z</time>
      </trkpt>
      <trkpt lat="43.64553" lon="1.38">
        <ele>150</ele>
        <time>2023-07-08T05:45:56Z</time>
      </trkpt>
      <trkpt lat="43.6455" lon="1.37998">
        <ele>150</ele>
        <time>2023-07-08T05:45:57Z</time>
      </trkpt>
      <trkpt lat="43.6455" lon="1.37998">
        <ele>150</ele>
        <time>2023-07-08T05:45:58Z</time>
      </trkpt>
      <trkpt lat="43.64547" lon="1.37997">
        <ele>150</ele>
        <time>2023-07-08T05:45:59Z</time>
      </trkpt>
      <trkpt lat="43.64547" lon="1.37997">
        <ele>150</ele>
        <time>2023-07-08T05:46:00Z</time>
      </trkpt>
      <trkpt lat="43.64545" lon="1.37995">
        <ele>150</ele>
        <time>2023-07-08T05:46:01Z</time>
      </trkpt>
      <trkpt lat="43.64545" lon="1.37995">
        <ele>150</ele>
        <time>2023-07-08T05:46:02Z</time>
      </trkpt>
      <trkpt lat="43.64545" lon="1.37995">
        <ele>149</ele>
        <time>2023-07-08T05:46:03Z</time>
      </trkpt>
      <trkpt lat="43.64545" lon="1.37995">
        <ele>149</ele>
        <time>2023-07-08T05:46:04Z</time>
      </trkpt>
      <trkpt lat="43.64545" lon="1.37995">
        <ele>149</ele>
        <time>2023-07-08T05:46:05Z</time>
      </trkpt>
      <trkpt lat="43.64545" lon="1.37995">
        <ele>149</ele>
        <time>2023-07-08T05:46:06Z</time>
      </trkpt>
      <trkpt lat="43.64549" lon="1.37995">
        <ele>149</ele>
        <time>2023-07-08T05:46:07Z</time>
      </trkpt>
      <trkpt lat="43.64552" lon="1.37996">
        <ele>149</ele>
        <time>2023-07-08T05:46:08Z</time>
      </trkpt>
      <trkpt lat="43.64556" lon="1.37998">
        <ele>149</ele>
        <time>2023-07-08T05:46:09Z</time>
      </trkpt>
      <trkpt lat="43.64556" lon="1.37998">
        <ele>149</ele>
        <time>2023-07-08T05:46:10Z</time>
      </trkpt>
      <trkpt lat="43.64556" lon="1.37998">
        <ele>149</ele>
        <time>2023-07-08T05:46:11Z</time>
      </trkpt>
      <trkpt lat="43.64553" lon="1.37999">
        <ele>149</ele>
        <time>2023-07-08T05:46:12Z</time>
      </trkpt>
      <trkpt lat="43.64553" lon="1.37999">
        <ele>149</ele>
        <time>2023-07-08T05:46:13Z</time>
      </trkpt>
      <trkpt lat="43.64553" lon="1.37999">
        <ele>149</ele>
        <time>2023-07-08T05:46:14Z</time>
      </trkpt>
      <trkpt lat="43.6455" lon="1.37998">
        <ele>149</ele>
        <time>2023-07-08T05:46:15Z</time>
      </trkpt>
      <trkpt lat="43.6455" lon="1.37998">
        <ele>149</ele>
        <time>2023-07-08T05:46:16Z</time>
      </trkpt>
      <trkpt lat="43.64547" lon="1.37996">
        <ele>149</ele>
        <time>2023-07-08T05:46:17Z</time>
      </trkpt>
      <trkpt lat="43.64547" lon="1.37996">
        <ele>149</ele>
        <time>2023-07-08T05:46:18Z</time>
      </trkpt>
      <trkpt lat="43.64545" lon="1.37994">
        <ele>149</ele>
        <time>2023-07-08T05:46:19Z</time>
      </trkpt>
      <trkpt lat="43.64545" lon="1.37994">
        <ele>149</ele>
        <time>2023-07-08T05:46:20Z</time>
      </trkpt>
      <trkpt lat="43.64545" lon="1.37994">
        <ele>149</ele>
        <time>2023-07-08T05:46:21Z</time>
      </trkpt>
      <trkpt lat="43.64545" lon="1.37994">
        <ele>149</ele>
        <time>2023-07-08T05:46:22Z</time>
      </trkpt>
      <trkpt lat="43.64545" lon="1.37994">
        <ele>149</ele>
        <time>2023-07-08T05:46:23Z</time>
      </trkpt>
      <trkpt lat="43.64545" lon="1.37994">
        <ele>149</ele>
        <time>2023-07-08T05:46:24Z</time>
      </trkpt>
      <trkpt lat="43.64545" lon="1.37994">
        <ele>149</ele>
        <time>2023-07-08T05:46:25Z</time>
      </trkpt>
      <trkpt lat="43.64548" lon="1.37995">
        <ele>149</ele>
        <time>2023-07-08T05:46:26Z</time>
      </trkpt>
      <trkpt lat="43.6455" lon="1.37996">
        <ele>149</ele>
        <time>2023-07-08T05:46:27Z</time>
      </trkpt>
      <trkpt lat="43.64553" lon="1.37997">
        <ele>149</ele>
        <time>2023-07-08T05:46:28Z</time>
      </trkpt>
      <trkpt lat="43.64553" lon="1.37997">
        <ele>149</ele>
        <time>2023-07-08T05:46:29Z</time>
      </trkpt>
      <trkpt lat="43.64556" lon="1.37997">
        <ele>149</ele>
        <time>2023-07-08T05:46:30Z</time>
      </trkpt>
      <trkpt lat="43.64556" lon="1.37997">
        <ele>149</ele>
        <time>2023-07-08T05:46:31Z</time>
      </trkpt>
      <trkpt lat="43.64556" lon="1.37994">
        <ele>149</ele>
        <time>2023-07-08T05:46:32Z</time>
      </trkpt>
      <trkpt lat="43.64556" lon="1.37994">
        <ele>149</ele>
        <time>2023-07-08T05:46:33Z</time>
      </trkpt>
      <trkpt lat="43.64558" lon="1.37991">
        <ele>149</ele>
        <time>2023-07-08T05:46:34Z</time>
      </trkpt>
      <trkpt lat="43.64558" lon="1.37991">
        <ele>149</ele>
        <time>2023-07-08T05:46:35Z</time>
      </trkpt>
      <trkpt lat="43.64559" lon="1.37988">
        <ele>149</ele>
        <time>2023-07-08T05:46:36Z</time>
      </trkpt>
      <trkpt lat="43.64559" lon="1.37988">
        <ele>149</ele>
        <time>2023-07-08T05:46:37Z</time>
      </trkpt>
      <trkpt lat="43.6456" lon="1.37985">
        <ele>149</ele>
        <time>2023-07-08T05:46:38Z</time>
      </trkpt>
      <trkpt lat="43.6456" lon="1.37985">
        <ele>149</ele>
        <time>2023-07-08T05:46:39Z</time>
      </trkpt>
      <trkpt lat="43.64561" lon="1.37983">
        <ele>149</ele>
        <time>2023-07-08T05:46:40Z</time>
      </trkpt>
      <trkpt lat="43.64561" lon="1.37983">
        <ele>149</ele>
        <time>2023-07-08T05:46:41Z</time>
      </trkpt>
      <trkpt lat="43.64562" lon="1.37979">
        <ele>149</ele>
        <time>2023-07-08T05:46:42Z</time>
      </trkpt>
      <trkpt lat="43.64562" lon="1.37979">
        <ele>148</ele>
        <time>2023-07-08T05:46:43Z</time>
      </trkpt>
      <trkpt lat="43.64562" lon="1.37979">
        <ele>148</ele>
        <time>2023-07-08T05:46:44Z</time>
      </trkpt>
      <trkpt lat="43.64561" lon="1.37976">
        <ele>148</ele>
        <time>2023-07-08T05:46:45Z</time>
      </trkpt>
      <trkpt lat="43.64559" lon="1.37976">
        <ele>148</ele>
        <time>2023-07-08T05:46:46Z</time>
      </trkpt>
      <trkpt lat="43.64559" lon="1.37976">
        <ele>148</ele>
        <time>2023-07-08T05:46:47Z</time>
      </trkpt>
      <trkpt lat="43.64559" lon="1.37976">
        <ele>148</ele>
        <time>2023-07-08T05:46:48Z</time>
      </trkpt>
      <trkpt lat="43.64557" lon="1.37978">
        <ele>148</ele>
        <time>2023-07-08T05:46:49Z</time>
      </trkpt>
      <trkpt lat="43.64557" lon="1.37978">
        <ele>148</ele>
        <time>2023-07-08T05:46:50Z</time>
      </trkpt>
      <trkpt lat="43.64554" lon="1.37979">
        <ele>148</ele>
        <time>2023-07-08T05:46:51Z</time>
      </trkpt>
      <trkpt lat="43.64554" lon="1.37979">
        <ele>148</ele>
        <time>2023-07-08T05:46:52Z</time>
      </trkpt>
      <trkpt lat="43.64552" lon="1.37981">
        <ele>148</ele>
        <time>2023-07-08T05:46:53Z</time>
      </trkpt>
      <trkpt lat="43.64552" lon="1.37981">
        <ele>148</ele>
        <time>2023-07-08T05:46:54Z</time>
      </trkpt>
      <trkpt lat="43.64552" lon="1.37981">
        <ele>148</ele>
        <time>2023-07-08T05:46:55Z</time>
      </trkpt>
      <trkpt lat="43.64549" lon="1.37982">
        <ele>148</ele>
        <time>2023-07-08T05:46:56Z</time>
      </trkpt>
      <trkpt lat="43.64549" lon="1.37982">
        <ele>148</ele>
        <time>2023-07-08T05:46:57Z</time>
      </trkpt>
      <trkpt lat="43.64547" lon="1.37983">
        <ele>148</ele>
        <time>2023-07-08T05:46:58Z</time>
      </trkpt>
      <trkpt lat="43.64547" lon="1.37983">
        <ele>148</ele>
        <time>2023-07-08T05:46:59Z</time>
      </trkpt>
      <trkpt lat="43.64545" lon="1.37984">
        <ele>148</ele>
        <time>2023-07-08T05:47:00Z</time>
      </trkpt>
      <trkpt lat="43.64545" lon="1.37984">
        <ele>148</ele>
        <time>2023-07-08T05:47:01Z</time>
      </trkpt>
      <trkpt lat="43.64543" lon="1.37986">
        <ele>148</ele>
        <time>2023-07-08T05:47:02Z</time>
      </trkpt>
      <trkpt lat="43.64543" lon="1.37986">
        <ele>148</ele>
        <time>2023-07-08T05:47:03Z</time>
      </trkpt>
      <trkpt lat="43.64543" lon="1.37986">
        <ele>148</ele>
        <time>2023-07-08T05:47:04Z</time>
      </trkpt>
      <trkpt lat="43.6454" lon="1.37987">
        <ele>148</ele>
        <time>2023-07-08T05:47:05Z</time>
      </trkpt>
      <trkpt lat="43.64539" lon="1.3799">
        <ele>148</ele>
        <time>2023-07-08T05:47:06Z</time>
      </trkpt>
      <trkpt lat="43.64539" lon="1.3799">
        <ele>148</ele>
        <time>2023-07-08T05:47:07Z</time>
      </trkpt>
      <trkpt lat="43.64539" lon="1.3799">
        <ele>148</ele>
        <time>2023-07-08T05:47:08Z</time>
      </trkpt>
      <trkpt lat="43.64539" lon="1.3799">
        <ele>148</ele>
        <time>2023-07-08T05:47:09Z</time>
      </trkpt>
      <trkpt lat="43.64541" lon="1.37992">
        <ele>148</ele>
        <time>2023-07-08T05:47:10Z</time>
      </trkpt>
      <trkpt lat="43.64541" lon="1.37992">
        <ele>148</ele>
        <time>2023-07-08T05:47:11Z</time>
      </trkpt>
      <trkpt lat="43.64543" lon="1.37992">
        <ele>148</ele>
        <time>2023-07-08T05:47:12Z</time>
      </trkpt>
      <trkpt lat="43.64543" lon="1.37992">
        <ele>148</ele>
        <time>2023-07-08T05:47:13Z</time>
      </trkpt>
      <trkpt lat="43.64543" lon="1.37992">
        <ele>148</ele>
        <time>2023-07-08T05:47:14Z</time>
      </trkpt>
      <trkpt lat="43.64545" lon="1.37994">
        <ele>148</ele>
        <time>2023-07-08T05:47:15Z</time>
      </trkpt>
      <trkpt lat="43.64545" lon="1.37994">
        <ele>148</ele>
        <time>2023-07-08T05:47:16Z</time>
      </trkpt>
      <trkpt lat="43.64545" lon="1.37994">
        <ele>149</ele>
        <time>2023-07-08T05:47:17Z</time>
      </trkpt>
      <trkpt lat="43.64545" lon="1.37994">
        <ele>149</ele>
        <time>2023-07-08T05:47:18Z</time>
      </trkpt>
      <trkpt lat="43.64545" lon="1.37994">
        <ele>149</ele>
        <time>2023-07-08T05:47:19Z</time>
      </trkpt>
      <trkpt lat="43.64545" lon="1.37994">
        <ele>149</ele>
        <time>2023-07-08T05:47:20Z</time>
      </trkpt>
      <trkpt lat="43.64545" lon="1.37994">
        <ele>149</ele>
        <time>2023-07-08T05:47:21Z</time>
      </trkpt>
      <trkpt lat="43.64545" lon="1.37994">
        <ele>149</ele>
        <time>2023-07-08T05:47:22Z</time>
      </trkpt>
      <trkpt lat="43.64545" lon="1.37994">
        <ele>149</ele>
        <time>2023-07-08T05:47:23Z</time>
      </trkpt>
      <trkpt lat="43.64545" lon="1.37994">
        <ele>149</ele>
        <time>2023-07-08T05:47:24Z</time>
      </trkpt>
      <trkpt lat="43.64545" lon="1.37994">
        <ele>148</ele>
        <time>2023-07-08T05:47:25Z</time>
      </trkpt>
      <trkpt lat="43.64545" lon="1.37994">
        <ele>148</ele>
        <time>2023-07-08T05:47:26Z</time>
      </trkpt>
      <trkpt lat="43.64545" lon="1.37994">
        <ele>148</ele>
        <time>2023-07-08T05:47:27Z</time>
      </trkpt>
      <trkpt lat="43.64545" lon="1.37994">
        <ele>148</ele>
        <time>2023-07-08T05:47:28Z</time>
      </trkpt>
      <trkpt lat="43.64545" lon="1.37994">
        <ele>148</ele>
        <time>2023-07-08T05:47:29Z</time>
      </trkpt>
      <trkpt lat="43.64545" lon="1.37994">
        <ele>148</ele>
        <time>2023-07-08T05:47:30Z</time>
      </trkpt>
      <trkpt lat="43.64545" lon="1.37994">
        <ele>148</ele>
        <time>2023-07-08T05:47:31Z</time>
      </trkpt>
      <trkpt lat="43.64545" lon="1.37994">
        <ele>148</ele>
        <time>2023-07-08T05:47:32Z</time>
      </trkpt>
      <trkpt lat="43.64545" lon="1.37994">
        <ele>147</ele>
        <time>2023-07-08T05:47:33Z</time>
      </trkpt>
      <trkpt lat="43.64545" lon="1.37994">
        <ele>148</ele>
        <time>2023-07-08T05:47:34Z</time>
      </trkpt>
      <trkpt lat="43.64545" lon="1.37994">
        <ele>148</ele>
        <time>2023-07-08T05:47:35Z</time>
      </trkpt>
      <trkpt lat="43.64545" lon="1.37994">
        <ele>148</ele>
        <time>2023-07-08T05:47:36Z</time>
      </trkpt>
      <trkpt lat="43.64543" lon="1.37994">
        <ele>149</ele>
        <time>2023-07-08T05:47:37Z</time>
      </trkpt>
      <trkpt lat="43.64543" lon="1.37994">
        <ele>149</ele>
        <time>2023-07-08T05:47:38Z</time>
      </trkpt>
      <trkpt lat="43.64543" lon="1.37994">
        <ele>149</ele>
        <time>2023-07-08T05:47:39Z</time>
      </trkpt>
      <trkpt lat="43.6454" lon="1.37992">
        <ele>149</ele>
        <time>2023-07-08T05:47:40Z</time>
      </trkpt>
      <trkpt lat="43.64536" lon="1.3799">
        <ele>148</ele>
        <time>2023-07-08T05:47:41Z</time>
      </trkpt>
      <trkpt lat="43.64532" lon="1.37988">
        <ele>148</ele>
        <time>2023-07-08T05:47:42Z</time>
      </trkpt>
      <trkpt lat="43.64528" lon="1.37986">
        <ele>148</ele>
        <time>2023-07-08T05:47:43Z</time>
      </trkpt>
      <trkpt lat="43.64523" lon="1.37984">
        <ele>148</ele>
        <time>2023-07-08T05:47:44Z</time>
      </trkpt>
      <trkpt lat="43.64517" lon="1.37981">
        <ele>148</ele>
        <time>2023-07-08T05:47:45Z</time>
      </trkpt>
      <trkpt lat="43.64511" lon="1.37979">
        <ele>147</ele>
        <time>2023-07-08T05:47:46Z</time>
      </trkpt>
      <trkpt lat="43.64506" lon="1.37977">
        <ele>147</ele>
        <time>2023-07-08T05:47:47Z</time>
      </trkpt>
      <trkpt lat="43.64502" lon="1.37974">
        <ele>147</ele>
        <time>2023-07-08T05:47:48Z</time>
      </trkpt>
      <trkpt lat="43.64492" lon="1.3797">
        <ele>147</ele>
        <time>2023-07-08T05:47:49Z</time>
      </trkpt>
      <trkpt lat="43.64486" lon="1.37966">
        <ele>147</ele>
        <time>2023-07-08T05:47:50Z</time>
      </trkpt>
      <trkpt lat="43.6448" lon="1.37962">
        <ele>147</ele>
        <time>2023-07-08T05:47:51Z</time>
      </trkpt>
      <trkpt lat="43.64475" lon="1.37959">
        <ele>147</ele>
        <time>2023-07-08T05:47:52Z</time>
      </trkpt>
      <trkpt lat="43.64471" lon="1.37956">
        <ele>147</ele>
        <time>2023-07-08T05:47:53Z</time>
      </trkpt>
      <trkpt lat="43.64468" lon="1.37955">
        <ele>148</ele>
        <time>2023-07-08T05:47:54Z</time>
      </trkpt>
      <trkpt lat="43.64465" lon="1.37954">
        <ele>148</ele>
        <time>2023-07-08T05:47:55Z</time>
      </trkpt>
      <trkpt lat="43.64464" lon="1.37952">
        <ele>148</ele>
        <time>2023-07-08T05:47:56Z</time>
      </trkpt>
      <trkpt lat="43.64464" lon="1.37952">
        <ele>148</ele>
        <time>2023-07-08T05:47:57Z</time>
      </trkpt>
      <trkpt lat="43.64462" lon="1.37949">
        <ele>148</ele>
        <time>2023-07-08T05:47:58Z</time>
      </trkpt>
      <trkpt lat="43.64462" lon="1.37949">
        <ele>148</ele>
        <time>2023-07-08T05:47:59Z</time>
      </trkpt>
      <trkpt lat="43.6446" lon="1.37948">
        <ele>148</ele>
        <time>2023-07-08T05:48:00Z</time>
      </trkpt>
      <trkpt lat="43.6446" lon="1.37948">
        <ele>148</ele>
        <time>2023-07-08T05:48:01Z</time>
      </trkpt>
      <trkpt lat="43.64458" lon="1.37946">
        <ele>148</ele>
        <time>2023-07-08T05:48:02Z</time>
      </trkpt>
      <trkpt lat="43.64458" lon="1.37946">
        <ele>148</ele>
        <time>2023-07-08T05:48:03Z</time>
      </trkpt>
      <trkpt lat="43.64456" lon="1.37944">
        <ele>148</ele>
        <time>2023-07-08T05:48:04Z</time>
      </trkpt>
      <trkpt lat="43.64456" lon="1.37944">
        <ele>148</ele>
        <time>2023-07-08T05:48:05Z</time>
      </trkpt>
      <trkpt lat="43.64454" lon="1.37942">
        <ele>148</ele>
        <time>2023-07-08T05:48:06Z</time>
      </trkpt>
      <trkpt lat="43.64454" lon="1.37942">
        <ele>148</ele>
        <time>2023-07-08T05:48:07Z</time>
      </trkpt>
      <trkpt lat="43.64452" lon="1.3794">
        <ele>148</ele>
        <time>2023-07-08T05:48:08Z</time>
      </trkpt>
      <trkpt lat="43.64452" lon="1.3794">
        <ele>148</ele>
        <time>2023-07-08T05:48:09Z</time>
      </trkpt>
      <trkpt lat="43.6445" lon="1.37938">
        <ele>148</ele>
        <time>2023-07-08T05:48:10Z</time>
      </trkpt>
      <trkpt lat="43.6445" lon="1.37938">
        <ele>148</ele>
        <time>2023-07-08T05:48:11Z</time>
      </trkpt>
      <trkpt lat="43.64448" lon="1.37936">
        <ele>148</ele>
        <time>2023-07-08T05:48:12Z</time>
      </trkpt>
      <trkpt lat="43.64448" lon="1.37936">
        <ele>148</ele>
        <time>2023-07-08T05:48:13Z</time>
      </trkpt>
      <trkpt lat="43.64446" lon="1.37934">
        <ele>148</ele>
        <time>2023-07-08T05:48:14Z</time>
      </trkpt>
      <trkpt lat="43.64446" lon="1.37934">
        <ele>148</ele>
        <time>2023-07-08T05:48:15Z</time>
      </trkpt>
      <trkpt lat="43.64444" lon="1.37932">
        <ele>148</ele>
        <time>2023-07-08T05:48:16Z</time>
      </trkpt>
      <trkpt lat="43.64444" lon="1.37932">
        <ele>148</ele>
        <time>2023-07-08T05:48:17Z</time>
      </trkpt>
      <trkpt lat="43.64443" lon="1.3793">
        <ele>148</ele>
        <time>2023-07-08T05:48:18Z</time>
      </trkpt>
      <trkpt lat="43.64443" lon="1.3793">
        <ele>148</ele>
        <time>2023-07-08T05:48:19Z</time>
      </trkpt>
      <trkpt lat="43.64443" lon="1.3793">
        <ele>148</ele>
        <time>2023-07-08T05:48:20Z</time>
      </trkpt>
      <trkpt lat="43.64445" lon="1.3793">
        <ele>148</ele>
        <time>2023-07-08T05:48:21Z</time>
      </trkpt>
      <trkpt lat="43.64448" lon="1.3793">
        <ele>148</ele>
        <time>2023-07-08T05:48:22Z</time>
      </trkpt>
      <trkpt lat="43.64451" lon="1.37931">
        <ele>148</ele>
        <time>2023-07-08T05:48:23Z</time>
      </trkpt>
      <trkpt lat="43.64455" lon="1.37933">
        <ele>148</ele>
        <time>2023-07-08T05:48:24Z</time>
      </trkpt>
      <trkpt lat="43.6446" lon="1.37934">
        <ele>148</ele>
        <time>2023-07-08T05:48:25Z</time>
      </trkpt>
      <trkpt lat="43.64466" lon="1.37936">
        <ele>148</ele>
        <time>2023-07-08T05:48:26Z</time>
      </trkpt>
      <trkpt lat="43.64472" lon="1.37939">
        <ele>148</ele>
        <time>2023-07-08T05:48:27Z</time>
      </trkpt>
      <trkpt lat="43.64478" lon="1.37942">
        <ele>147</ele>
        <time>2023-07-08T05:48:28Z</time>
      </trkpt>
      <trkpt lat="43.64484" lon="1.37945">
        <ele>148</ele>
        <time>2023-07-08T05:48:29Z</time>
      </trkpt>
      <trkpt lat="43.6449" lon="1.37948">
        <ele>148</ele>
        <time>2023-07-08T05:48:30Z</time>
      </trkpt>
      <trkpt lat="43.64496" lon="1.37951">
        <ele>148</ele>
        <time>2023-07-08T05:48:31Z</time>
      </trkpt>
      <trkpt lat="43.64502" lon="1.37954">
        <ele>149</ele>
        <time>2023-07-08T05:48:32Z</time>
      </trkpt>
      <trkpt lat="43.64508" lon="1.37957">
        <ele>149</ele>
        <time>2023-07-08T05:48:33Z</time>
      </trkpt>
      <trkpt lat="43.64513" lon="1.3796">
        <ele>148</ele>
        <time>2023-07-08T05:48:34Z</time>
      </trkpt>
      <trkpt lat="43.64516" lon="1.37962">
        <ele>148</ele>
        <time>2023-07-08T05:48:35Z</time>
      </trkpt>
      <trkpt lat="43.64519" lon="1.37964">
        <ele>147</ele>
        <time>2023-07-08T05:48:36Z</time>
      </trkpt>
      <trkpt lat="43.64522" lon="1.37966">
        <ele>147</ele>
        <time>2023-07-08T05:48:37Z</time>
      </trkpt>
      <trkpt lat="43.64524" lon="1.37968">
        <ele>147</ele>
        <time>2023-07-08T05:48:38Z</time>
      </trkpt>
      <trkpt lat="43.64524" lon="1.37968">
        <ele>147</ele>
        <time>2023-07-08T05:48:39Z</time>
      </trkpt>
      <trkpt lat="43.64526" lon="1.3797">
        <ele>147</ele>
        <time>2023-07-08T05:48:40Z</time>
      </trkpt>
      <trkpt lat="43.64526" lon="1.3797">
        <ele>147</ele>
        <time>2023-07-08T05:48:41Z</time>
      </trkpt>
      <trkpt lat="43.64527" lon="1.37974">
        <ele>147</ele>
        <time>2023-07-08T05:48:42Z</time>
      </trkpt>
      <trkpt lat="43.64527" lon="1.37974">
        <ele>148</ele>
        <time>2023-07-08T05:48:43Z</time>
      </trkpt>
      <trkpt lat="43.6453" lon="1.37977">
        <ele>148</ele>
        <time>2023-07-08T05:48:44Z</time>
      </trkpt>
      <trkpt lat="43.6453" lon="1.37977">
        <ele>148</ele>
        <time>2023-07-08T05:48:45Z</time>
      </trkpt>
      <trkpt lat="43.64532" lon="1.37978">
        <ele>148</ele>
        <time>2023-07-08T05:48:46Z</time>
      </trkpt>
      <trkpt lat="43.64532" lon="1.37978">
        <ele>148</ele>
        <time>2023-07-08T05:48:47Z</time>
      </trkpt>
      <trkpt lat="43.64534" lon="1.37979">
        <ele>148</ele>
        <time>2023-07-08T05:48:48Z</time>
      </trkpt>
      <trkpt lat="43.64534" lon="1.37979">
        <ele>148</ele>
        <time>2023-07-08T05:48:49Z</time>
      </trkpt>
      <trkpt lat="43.64536" lon="1.3798">
        <ele>148</ele>
        <time>2023-07-08T05:48:50Z</time>
      </trkpt>
      <trkpt lat="43.64536" lon="1.3798">
        <ele>148</ele>
        <time>2023-07-08T05:48:51Z</time>
      </trkpt>
      <trkpt lat="43.64538" lon="1.37982">
        <ele>148</ele>
        <time>2023-07-08T05:48:52Z</time>
      </trkpt>
      <trkpt lat="43.64538" lon="1.37982">
        <ele>148</ele>
        <time>2023-07-08T05:48:53Z</time>
      </trkpt>
      <trkpt lat="43.6454" lon="1.37984">
        <ele>148</ele>
        <time>2023-07-08T05:48:54Z</time>
      </trkpt>
      <trkpt lat="43.6454" lon="1.37984">
        <ele>148</ele>
        <time>2023-07-08T05:48:55Z</time>
      </trkpt>
      <trkpt lat="43.64542" lon="1.37987">
        <ele>148</ele>
        <time>2023-07-08T05:48:56Z</time>
      </trkpt>
      <trkpt lat="43.64542" lon="1.37987">
        <ele>148</ele>
        <time>2023-07-08T05:48:57Z</time>
      </trkpt>
      <trkpt lat="43.64544" lon="1.37989">
        <ele>148</ele>
        <time>2023-07-08T05:48:58Z</time>
      </trkpt>
      <trkpt lat="43.64544" lon="1.37989">
        <ele>148</ele>
        <time>2023-07-08T05:48:59Z</time>
      </trkpt>
      <trkpt lat="43.64544" lon="1.37989">
        <ele>148</ele>
        <time>2023-07-08T05:49:00Z</time>
      </trkpt>
      <trkpt lat="43.64544" lon="1.37989">
        <ele>148</ele>
        <time>2023-07-08T05:49:01Z</time>
      </trkpt>
      <trkpt lat="43.64544" lon="1.37989">
        <ele>148</ele>
        <time>2023-07-08T05:49:02Z</time>
      </trkpt>
      <trkpt lat="43.64542" lon="1.37987">
        <ele>148</ele>
        <time>2023-07-08T05:49:03Z</time>
      </trkpt>
      <trkpt lat="43.6454" lon="1.37985">
        <ele>148</ele>
        <time>2023-07-08T05:49:04Z</time>
      </trkpt>
      <trkpt lat="43.64537" lon="1.37983">
        <ele>148</ele>
        <time>2023-07-08T05:49:05Z</time>
      </trkpt>
      <trkpt lat="43.64534" lon="1.37981">
        <ele>148</ele>
        <time>2023-07-08T05:49:06Z</time>
      </trkpt>
      <trkpt lat="43.64531" lon="1.37979">
        <ele>148</ele>
        <time>2023-07-08T05:49:07Z</time>
      </trkpt>
      <trkpt lat="43.64525" lon="1.37977">
        <ele>147</ele>
        <time>2023-07-08T05:49:08Z</time>
      </trkpt>
      <trkpt lat="43.6452" lon="1.37975">
        <ele>147</ele>
        <time>2023-07-08T05:49:09Z</time>
      </trkpt>
      <trkpt lat="43.64514" lon="1.37973">
        <ele>147</ele>
        <time>2023-07-08T05:49:10Z</time>
      </trkpt>
      <trkpt lat="43.64509" lon="1.37971">
        <ele>147</ele>
        <time>2023-07-08T05:49:11Z</time>
      </trkpt>
      <trkpt lat="43.64504" lon="1.3797">
        <ele>147</ele>
        <time>2023-07-08T05:49:12Z</time>
      </trkpt>
      <trkpt lat="43.64495" lon="1.37967">
        <ele>148</ele>
        <time>2023-07-08T05:49:13Z</time>
      </trkpt>
      <trkpt lat="43.64489" lon="1.37965">
        <ele>149</ele>
        <time>2023-07-08T05:49:14Z</time>
      </trkpt>
      <trkpt lat="43.64484" lon="1.37963">
        <ele>149</ele>
        <time>2023-07-08T05:49:15Z</time>
      </trkpt>
      <trkpt lat="43.64479" lon="1.3796">
        <ele>149</ele>
        <time>2023-07-08T05:49:16Z</time>
      </trkpt>
      <trkpt lat="43.64475" lon="1.37959">
        <ele>149</ele>
        <time>2023-07-08T05:49:17Z</time>
      </trkpt>
      <trkpt lat="43.64472" lon="1.37957">
        <ele>149</ele>
        <time>2023-07-08T05:49:18Z</time>
      </trkpt>
      <trkpt lat="43.64472" lon="1.37957">
        <ele>148</ele>
        <time>2023-07-08T05:49:19Z</time>
      </trkpt>
      <trkpt lat="43.64472" lon="1.37954">
        <ele>148</ele>
        <time>2023-07-08T05:49:20Z</time>
      </trkpt>
      <trkpt lat="43.64472" lon="1.37954">
        <ele>148</ele>
        <time>2023-07-08T05:49:21Z</time>
      </trkpt>
      <trkpt lat="43.6447" lon="1.3795">
        <ele>148</ele>
        <time>2023-07-08T05:49:22Z</time>
      </trkpt>
      <trkpt lat="43.6447" lon="1.3795">
        <ele>148</ele>
        <time>2023-07-08T05:49:23Z</time>
      </trkpt>
      <trkpt lat="43.64468" lon="1.37948">
        <ele>148</ele>
        <time>2023-07-08T05:49:24Z</time>
      </trkpt>
      <trkpt lat="43.64468" lon="1.37948">
        <ele>148</ele>
        <time>2023-07-08T05:49:25Z</time>
      </trkpt>
      <trkpt lat="43.64466" lon="1.37945">
        <ele>148</ele>
        <time>2023-07-08T05:49:26Z</time>
      </trkpt>
      <trkpt lat="43.64466" lon="1.37945">
        <ele>148</ele>
        <time>2023-07-08T05:49:27Z</time>
      </trkpt>
      <trkpt lat="43.64464" lon="1.37943">
        <ele>148</ele>
        <time>2023-07-08T05:49:28Z</time>
      </trkpt>
      <trkpt lat="43.64464" lon="1.37943">
        <ele>148</ele>
        <time>2023-07-08T05:49:29Z</time>
      </trkpt>
      <trkpt lat="43.64463" lon="1.3794">
        <ele>148</ele>
        <time>2023-07-08T05:49:30Z</time>
      </trkpt>
    </trkseg>
  </trk>
</gpx>